createdAt,value
2018-11-10T00:00:22.030Z,8.38
2018-11-10T00:02:51.790Z,8.35
2018-11-10T00:05:22.585Z,8.33
2018-11-10T00:07:51.907Z,8.26
2018-11-10T00:10:21.691Z,8.29
2018-11-10T00:12:51.009Z,8.35
2018-11-10T00:15:20.341Z,8.18
2018-11-10T00:17:49.710Z,7.89
2018-11-10T00:20:19.016Z,7.81
2018-11-10T00:22:48.192Z,8.04
2018-11-10T00:25:17.465Z,8.01
2018-11-10T00:27:47.259Z,7.89
2018-11-10T00:30:18.775Z,7.90
2018-11-10T00:32:48.220Z,7.93
2018-11-10T00:35:17.529Z,8.10
2018-11-10T00:37:47.691Z,8.10
2018-11-10T00:40:17.455Z,8.15
2018-11-10T00:42:46.772Z,8.02
2018-11-10T00:45:17.194Z,7.91
2018-11-10T00:47:46.549Z,7.93
2018-11-10T00:50:15.807Z,7.81
2018-11-10T00:52:45.458Z,7.80
2018-11-10T00:55:14.772Z,7.88
2018-11-10T00:57:44.041Z,7.86
2018-11-10T01:00:13.874Z,7.73
2018-11-10T01:02:44.329Z,7.81
2018-11-10T01:05:13.637Z,7.78
2018-11-10T01:07:43.003Z,7.91
2018-11-10T01:10:14.143Z,7.95
2018-11-10T01:12:43.500Z,8.05
2018-11-10T01:15:14.667Z,8.01
2018-11-10T01:17:44.633Z,8.00
2018-11-10T01:20:14.469Z,7.92
2018-11-10T01:22:44.443Z,7.99
2018-11-10T01:25:13.778Z,7.88
2018-11-10T01:27:43.630Z,7.74
2018-11-10T01:30:16.362Z,7.85
2018-11-10T01:32:46.324Z,7.89
2018-11-10T01:35:16.139Z,7.88
2018-11-10T01:37:45.588Z,7.90
2018-11-10T01:40:15.708Z,7.75
2018-11-10T01:42:45.400Z,7.92
2018-11-10T01:45:16.544Z,7.76
2018-11-10T01:47:47.416Z,7.67
2018-11-10T01:50:17.293Z,7.76
2018-11-10T01:52:46.573Z,7.86
2018-11-10T01:55:15.716Z,7.81
2018-11-10T01:57:45.146Z,7.74
2018-11-10T02:00:16.210Z,7.75
2018-11-10T02:02:46.689Z,7.83
2018-11-10T02:05:16.491Z,7.83
2018-11-10T02:07:46.299Z,7.94
2018-11-10T02:10:16.327Z,7.76
2018-11-10T02:12:45.500Z,7.73
2018-11-10T02:15:16.783Z,7.66
2018-11-10T02:17:46.001Z,7.83
2018-11-10T02:20:15.905Z,7.79
2018-11-10T02:22:46.473Z,7.69
2018-11-10T02:25:16.814Z,7.73
2018-11-10T02:27:46.214Z,7.58
2018-11-10T02:30:15.762Z,7.53
2018-11-10T02:32:45.642Z,7.56
2018-11-10T02:35:15.540Z,7.55
2018-11-10T02:37:44.807Z,7.68
2018-11-10T02:40:15.239Z,7.76
2018-11-10T02:42:45.036Z,7.59
2018-11-10T02:45:15.298Z,7.60
2018-11-10T02:47:45.991Z,7.76
2018-11-10T02:50:16.659Z,7.76
2018-11-10T02:52:46.327Z,7.75
2018-11-10T02:55:15.638Z,7.79
2018-11-10T02:57:44.946Z,7.64
2018-11-10T03:00:16.242Z,7.68
2018-11-10T03:02:46.225Z,7.71
2018-11-10T03:05:15.532Z,7.72
2018-11-10T03:07:45.337Z,7.77
2018-11-10T03:10:14.594Z,7.78
2018-11-10T03:12:44.313Z,7.56
2018-11-10T03:15:15.228Z,7.65
2018-11-10T03:17:45.633Z,7.67
2018-11-10T03:20:16.285Z,7.48
2018-11-10T03:22:46.992Z,7.58
2018-11-10T03:25:17.018Z,7.57
2018-11-10T03:27:47.769Z,7.41
2018-11-10T03:30:17.904Z,7.24
2018-11-10T03:32:47.143Z,7.28
2018-11-10T03:35:16.869Z,7.25
2018-11-10T03:37:46.847Z,7.27
2018-11-10T03:40:16.783Z,7.22
2018-11-10T03:42:46.091Z,7.34
2018-11-10T03:45:16.467Z,7.25
2018-11-10T03:47:45.732Z,7.31
2018-11-10T03:50:14.836Z,7.26
2018-11-10T03:52:43.928Z,7.20
2018-11-10T03:55:13.036Z,7.24
2018-11-10T03:57:42.215Z,7.25
2018-11-10T04:00:13.028Z,7.42
2018-11-10T04:02:44.015Z,7.58
2018-11-10T04:05:13.706Z,7.53
2018-11-10T04:07:43.972Z,7.56
2018-11-10T04:10:13.708Z,7.68
2018-11-10T04:12:42.881Z,7.68
2018-11-10T04:15:12.008Z,7.47
2018-11-10T04:17:41.143Z,7.49
2018-11-10T04:20:10.916Z,7.49
2018-11-10T04:22:40.003Z,7.24
2018-11-10T04:25:10.422Z,7.53
2018-11-10T04:27:39.587Z,7.64
2018-11-10T04:30:09.691Z,7.50
2018-11-10T04:32:38.759Z,7.44
2018-11-10T04:35:08.277Z,7.45
2018-11-10T04:37:37.632Z,7.54
2018-11-10T04:40:07.683Z,7.49
2018-11-10T04:42:36.975Z,7.57
2018-11-10T04:45:07.250Z,7.60
2018-11-10T04:47:36.381Z,7.67
2018-11-10T04:50:06.632Z,7.59
2018-11-10T04:52:35.744Z,7.40
2018-11-10T04:55:04.992Z,7.24
2018-11-10T04:57:34.135Z,7.03
2018-11-10T05:00:03.352Z,7.22
2018-11-10T05:02:32.572Z,7.20
2018-11-10T05:05:01.676Z,7.41
2018-11-10T05:07:30.795Z,7.45
2018-11-10T05:09:59.938Z,7.54
2018-11-10T05:12:29.020Z,7.56
2018-11-10T05:14:58.140Z,7.51
2018-11-10T05:17:27.313Z,7.42
2018-11-10T05:19:56.439Z,7.41
2018-11-10T05:22:25.693Z,7.45
2018-11-10T05:24:54.858Z,7.50
2018-11-10T05:27:23.987Z,7.38
2018-11-10T05:29:53.189Z,7.15
2018-11-10T05:32:22.283Z,7.17
2018-11-10T05:34:51.392Z,7.25
2018-11-10T05:37:20.540Z,7.33
2018-11-10T05:39:49.663Z,7.30
2018-11-10T05:42:18.819Z,7.25
2018-11-10T05:44:47.957Z,7.06
2018-11-10T05:47:17.111Z,7.22
2018-11-10T05:49:46.468Z,7.15
2018-11-10T05:52:15.653Z,7.16
2018-11-10T05:54:44.973Z,7.27
2018-11-10T05:57:14.341Z,7.20
2018-11-10T05:59:43.350Z,7.17
2018-11-10T06:02:12.867Z,7.19
2018-11-10T06:04:41.939Z,6.96
2018-11-10T06:07:12.498Z,6.98
2018-11-10T06:09:41.747Z,7.12
2018-11-10T06:12:10.764Z,7.16
2018-11-10T06:14:40.020Z,7.04
2018-11-10T06:17:09.252Z,7.03
2018-11-10T06:19:38.756Z,7.01
2018-11-10T06:22:07.868Z,7.06
2018-11-10T06:24:37.024Z,7.08
2018-11-10T06:27:06.168Z,7.09
2018-11-10T06:29:35.260Z,7.03
2018-11-10T06:32:04.500Z,7.05
2018-11-10T06:34:33.656Z,7.02
2018-11-10T06:37:02.847Z,7.00
2018-11-10T06:39:32.012Z,7.12
2018-11-10T06:42:01.102Z,7.17
2018-11-10T06:44:30.260Z,7.07
2018-11-10T06:46:59.730Z,7.22
2018-11-10T06:49:28.851Z,7.21
2018-11-10T06:51:58.100Z,7.20
2018-11-10T06:54:27.240Z,7.23
2018-11-10T06:56:56.432Z,7.30
2018-11-10T06:59:25.653Z,7.37
2018-11-10T07:01:54.745Z,7.18
2018-11-10T07:04:23.952Z,7.22
2018-11-10T07:06:53.119Z,7.22
2018-11-10T07:09:22.292Z,7.33
2018-11-10T07:11:51.413Z,7.29
2018-11-10T07:14:20.615Z,7.22
2018-11-10T07:16:49.717Z,7.12
2018-11-10T07:19:18.785Z,7.31
2018-11-10T07:21:47.890Z,7.19
2018-11-10T07:24:17.017Z,7.31
2018-11-10T07:26:46.081Z,7.17
2018-11-10T07:29:15.151Z,7.27
2018-11-10T07:31:44.322Z,7.39
2018-11-10T07:34:13.570Z,7.24
2018-11-10T07:36:42.729Z,7.29
2018-11-10T07:39:12.469Z,7.30
2018-11-10T07:41:41.740Z,7.23
2018-11-10T07:44:10.809Z,7.24
2018-11-10T07:46:39.951Z,7.28
2018-11-10T07:49:09.078Z,7.30
2018-11-10T07:51:38.145Z,7.27
2018-11-10T07:54:07.216Z,7.16
2018-11-10T07:56:36.461Z,7.34
2018-11-10T07:59:06.189Z,7.40
2018-11-10T08:01:35.284Z,7.41
2018-11-10T08:04:04.459Z,7.48
2018-11-10T08:06:33.532Z,7.45
2018-11-10T08:09:02.678Z,7.59
2018-11-10T08:11:31.780Z,7.69
2018-11-10T08:14:00.936Z,7.78
2018-11-10T08:16:30.083Z,7.84
2018-11-10T08:18:59.168Z,7.94
2018-11-10T08:21:28.436Z,8.07
2018-11-10T08:23:57.649Z,8.13
2018-11-10T08:26:26.720Z,8.07
2018-11-10T08:28:55.821Z,8.05
2018-11-10T08:31:25.116Z,8.18
2018-11-10T08:33:54.181Z,8.16
2018-11-10T08:36:23.333Z,8.12
2018-11-10T08:38:52.459Z,8.15
2018-11-10T08:41:21.521Z,8.13
2018-11-10T08:43:50.683Z,8.20
2018-11-10T08:46:19.801Z,8.42
2018-11-10T08:48:48.888Z,8.39
2018-11-10T08:51:17.967Z,8.47
2018-11-10T08:53:47.025Z,8.46
2018-11-10T08:56:16.112Z,8.42
2018-11-10T08:58:45.179Z,8.54
2018-11-10T09:01:14.282Z,8.61
2018-11-10T09:03:43.645Z,8.84
2018-11-10T09:06:12.701Z,9.07
2018-11-10T09:08:41.811Z,9.01
2018-11-10T09:11:10.932Z,8.85
2018-11-10T09:13:40.000Z,8.80
2018-11-10T09:16:09.084Z,8.98
2018-11-10T09:18:38.149Z,9.06
2018-11-10T09:21:07.265Z,9.02
2018-11-10T09:23:36.591Z,9.03
2018-11-10T09:26:05.812Z,9.22
2018-11-10T09:28:34.936Z,9.22
2018-11-10T09:31:04.131Z,9.05
2018-11-10T09:33:33.178Z,9.32
2018-11-10T09:36:02.282Z,9.61
2018-11-10T09:38:31.387Z,9.78
2018-11-10T09:41:00.492Z,9.77
2018-11-10T09:43:29.536Z,9.96
2018-11-10T09:45:58.776Z,10.32
2018-11-10T09:48:27.875Z,10.45
2018-11-10T09:50:57.003Z,10.57
2018-11-10T09:53:26.241Z,10.52
2018-11-10T09:55:55.341Z,10.26
2018-11-10T09:58:24.465Z,10.16
2018-11-10T10:00:53.566Z,10.23
2018-11-10T10:03:22.690Z,10.02
2018-11-10T10:05:51.840Z,10.05
2018-11-10T10:08:20.987Z,10.09
2018-11-10T10:10:50.061Z,10.17
2018-11-10T10:13:19.193Z,10.37
2018-11-10T10:15:48.359Z,10.42
2018-11-10T10:18:17.410Z,10.53
2018-11-10T10:20:46.506Z,10.50
2018-11-10T10:23:15.781Z,10.51
2018-11-10T10:25:44.902Z,10.51
2018-11-10T10:28:14.016Z,10.60
2018-11-10T10:30:43.111Z,10.78
2018-11-10T10:33:12.204Z,10.65
2018-11-10T10:35:41.748Z,10.73
2018-11-10T10:38:10.800Z,10.82
2018-11-10T10:40:39.927Z,10.97
2018-11-10T10:43:09.160Z,11.31
2018-11-10T10:45:38.286Z,11.53
2018-11-10T10:48:07.369Z,11.49
2018-11-10T10:50:36.442Z,11.61
2018-11-10T10:53:05.730Z,12.11
2018-11-10T10:55:34.878Z,12.38
2018-11-10T10:58:03.977Z,12.56
2018-11-10T11:00:38.391Z,13.11
2018-11-10T11:03:12.778Z,13.64
2018-11-10T11:05:43.731Z,14.08
2018-11-10T11:08:12.801Z,14.21
2018-11-10T11:10:41.899Z,14.75
2018-11-10T11:13:11.000Z,14.97
2018-11-10T11:15:40.108Z,15.35
2018-11-10T11:18:09.201Z,15.91
2018-11-10T11:20:38.420Z,17.16
2018-11-10T11:23:07.505Z,17.36
2018-11-10T11:25:36.629Z,18.17
2018-11-10T11:28:05.765Z,18.54
2018-11-10T11:30:34.891Z,18.70
2018-11-10T11:33:03.996Z,18.92
2018-11-10T11:35:33.083Z,19.42
2018-11-10T11:38:02.161Z,20.81
2018-11-10T11:40:31.291Z,22.39
2018-11-10T11:43:00.396Z,23.99
2018-11-10T11:45:36.067Z,24.27
2018-11-10T11:48:05.360Z,24.83
2018-11-10T11:50:34.485Z,25.49
2018-11-10T11:53:03.640Z,25.35
2018-11-10T11:55:32.817Z,25.43
2018-11-10T11:58:02.053Z,26.19
2018-11-10T12:00:31.028Z,25.91
2018-11-10T12:03:00.125Z,26.83
2018-11-10T12:05:29.227Z,26.31
2018-11-10T12:07:58.297Z,25.80
2018-11-10T12:10:27.437Z,25.90
2018-11-10T12:12:56.519Z,26.20
2018-11-10T12:15:25.621Z,26.86
2018-11-10T12:17:54.688Z,27.28
2018-11-10T12:20:23.767Z,26.24
2018-11-10T12:22:52.851Z,26.15
2018-11-10T12:25:21.989Z,26.20
2018-11-10T12:27:51.177Z,26.60
2018-11-10T12:30:20.560Z,27.13
2018-11-10T12:32:49.628Z,26.52
2018-11-10T12:35:18.724Z,26.95
2018-11-10T12:37:48.004Z,27.12
2018-11-10T12:40:17.170Z,26.83
2018-11-10T12:42:46.348Z,27.65
2018-11-10T12:45:15.452Z,27.02
2018-11-10T12:47:44.713Z,26.66
2018-11-10T12:50:15.025Z,27.69
2018-11-10T12:52:45.244Z,28.46
2018-11-10T12:55:15.501Z,27.44
2018-11-10T12:57:45.716Z,27.76
2018-11-10T13:00:16.298Z,28.77
2018-11-10T13:02:45.938Z,28.50
2018-11-10T13:05:15.027Z,28.08
2018-11-10T13:07:46.259Z,27.24
2018-11-10T13:10:15.324Z,28.32
2018-11-10T13:12:44.972Z,28.39
2018-11-10T13:15:14.106Z,28.26
2018-11-10T13:17:43.342Z,27.61
2018-11-10T13:20:14.333Z,27.27
2018-11-10T13:22:43.457Z,28.12
2018-11-10T13:25:13.621Z,27.77
2018-11-10T13:27:42.904Z,27.45
2018-11-10T13:30:13.554Z,26.63
2018-11-10T13:32:42.845Z,26.89
2018-11-10T13:35:12.145Z,26.71
2018-11-10T13:37:41.328Z,26.98
2018-11-10T13:40:10.997Z,26.84
2018-11-10T13:42:40.060Z,26.91
2018-11-10T13:45:10.903Z,26.76
2018-11-10T13:47:39.964Z,27.16
2018-11-10T13:50:10.259Z,27.55
2018-11-10T13:52:40.560Z,26.79
2018-11-10T13:55:10.077Z,26.53
2018-11-10T13:57:39.356Z,26.68
2018-11-10T14:00:11.517Z,27.16
2018-11-10T14:02:40.653Z,26.79
2018-11-10T14:05:10.039Z,26.07
2018-11-10T14:07:39.175Z,25.63
2018-11-10T14:10:09.940Z,25.48
2018-11-10T14:12:39.537Z,25.99
2018-11-10T14:15:08.850Z,25.54
2018-11-10T14:17:38.143Z,25.59
2018-11-10T14:20:09.384Z,25.20
2018-11-10T14:22:38.483Z,24.40
2018-11-10T14:25:09.282Z,24.26
2018-11-10T14:27:39.370Z,23.97
2018-11-10T14:30:10.877Z,22.09
2018-11-10T14:32:40.498Z,20.74
2018-11-10T14:35:10.410Z,18.90
2018-11-10T14:37:39.600Z,17.75
2018-11-10T14:40:10.752Z,17.53
2018-11-10T14:42:40.552Z,17.29
2018-11-10T14:45:12.124Z,17.03
2018-11-10T14:47:41.818Z,17.05
2018-11-10T14:50:11.648Z,17.76
2018-11-10T14:52:41.046Z,17.60
2018-11-10T14:55:11.060Z,17.12
2018-11-10T14:57:40.392Z,16.21
2018-11-10T15:00:14.837Z,15.62
2018-11-10T15:02:43.945Z,14.79
2018-11-10T15:05:13.682Z,14.71
2018-11-10T15:07:43.627Z,14.08
2018-11-10T15:10:13.838Z,13.73
2018-11-10T15:12:43.644Z,13.36
2018-11-10T15:15:13.785Z,13.07
2018-11-10T15:17:43.155Z,13.15
2018-11-10T15:20:13.518Z,13.02
2018-11-10T15:22:42.618Z,12.84
2018-11-10T15:25:13.324Z,12.74
2018-11-10T15:27:42.614Z,12.67
2018-11-10T15:30:14.582Z,12.49
2018-11-10T15:32:44.694Z,12.20
2018-11-10T15:35:15.006Z,12.17
2018-11-10T15:37:45.432Z,11.90
2018-11-10T15:40:15.353Z,11.77
2018-11-10T15:42:44.753Z,11.64
2018-11-10T15:45:14.908Z,11.64
2018-11-10T15:47:44.267Z,11.60
2018-11-10T15:50:14.688Z,11.53
2018-11-10T15:52:43.769Z,11.34
2018-11-10T15:55:13.401Z,11.21
2018-11-10T15:57:42.820Z,11.16
2018-11-10T16:00:14.487Z,11.19
2018-11-10T16:02:43.579Z,11.08
2018-11-10T16:05:13.476Z,11.04
2018-11-10T16:07:42.593Z,10.95
2018-11-10T16:10:12.045Z,10.93
2018-11-10T16:12:41.224Z,10.85
2018-11-10T16:15:12.749Z,10.76
2018-11-10T16:17:42.125Z,10.74
2018-11-10T16:20:13.895Z,10.64
2018-11-10T16:22:44.119Z,10.60
2018-11-10T16:25:13.361Z,10.53
2018-11-10T16:27:42.535Z,10.47
2018-11-10T16:30:15.100Z,10.38
2018-11-10T16:32:44.634Z,10.41
2018-11-10T16:35:13.711Z,10.04
2018-11-10T16:37:42.976Z,9.87
2018-11-10T16:40:14.520Z,9.81
2018-11-10T16:42:44.736Z,9.73
2018-11-10T16:45:14.572Z,9.55
2018-11-10T16:47:43.657Z,9.51
2018-11-10T16:50:12.750Z,9.58
2018-11-10T16:52:42.494Z,9.76
2018-11-10T16:55:11.633Z,9.89
2018-11-10T16:57:40.714Z,9.92
2018-11-10T17:00:11.806Z,9.96
2018-11-10T17:02:41.100Z,9.73
2018-11-10T17:05:10.412Z,9.81
2018-11-10T17:07:39.606Z,9.73
2018-11-10T17:10:11.148Z,9.76
2018-11-10T17:12:40.338Z,9.73
2018-11-10T17:15:09.882Z,9.70
2018-11-10T17:17:39.262Z,9.68
2018-11-10T17:20:11.316Z,9.63
2018-11-10T17:22:40.523Z,9.26
2018-11-10T17:25:10.336Z,9.35
2018-11-10T17:27:39.740Z,9.14
2018-11-10T17:30:11.649Z,9.23
2018-11-10T17:32:40.931Z,9.12
2018-11-10T17:35:11.635Z,9.15
2018-11-10T17:37:40.725Z,9.27
2018-11-10T17:40:10.745Z,9.16
2018-11-10T17:42:40.211Z,9.18
2018-11-10T17:45:11.579Z,9.12
2018-11-10T17:47:41.083Z,9.02
2018-11-10T17:50:11.318Z,8.97
2018-11-10T17:52:40.621Z,8.96
2018-11-10T17:55:11.131Z,8.98
2018-11-10T17:57:40.834Z,9.06
2018-11-10T18:00:09.934Z,8.74
2018-11-10T18:02:39.068Z,8.55
2018-11-10T18:05:09.579Z,8.41
2018-11-10T18:07:38.708Z,8.42
2018-11-10T18:10:09.502Z,8.50
2018-11-10T18:12:38.573Z,8.42
2018-11-10T18:15:08.863Z,8.34
2018-11-10T18:17:38.219Z,8.42
2018-11-10T18:20:08.168Z,8.49
2018-11-10T18:22:37.248Z,8.34
2018-11-10T18:25:06.519Z,8.36
2018-11-10T18:27:35.511Z,8.52
2018-11-10T18:30:05.520Z,8.60
2018-11-10T18:32:34.615Z,8.67
2018-11-10T18:35:03.695Z,8.59
2018-11-10T18:37:32.800Z,8.57
2018-11-10T18:40:02.672Z,8.56
2018-11-10T18:42:31.700Z,8.78
2018-11-10T18:45:00.789Z,8.88
2018-11-10T18:47:29.891Z,8.99
2018-11-10T18:49:58.993Z,9.07
2018-11-10T18:52:28.193Z,8.87
2018-11-10T18:54:57.187Z,8.72
2018-11-10T18:57:26.471Z,8.81
2018-11-10T18:59:55.359Z,8.91
2018-11-10T19:02:24.446Z,8.94
2018-11-10T19:04:53.561Z,9.02
2018-11-10T19:07:22.693Z,8.85
2018-11-10T19:09:51.767Z,8.87
2018-11-10T19:12:20.845Z,8.80
2018-11-10T19:14:49.956Z,8.65
2018-11-10T19:17:19.051Z,8.69
2018-11-10T19:19:48.139Z,8.73
2018-11-10T19:22:17.237Z,8.78
2018-11-10T19:24:46.301Z,8.61
2018-11-10T19:27:15.389Z,8.69
2018-11-10T19:29:44.482Z,8.67
2018-11-10T19:32:13.588Z,8.54
2018-11-10T19:34:42.678Z,8.57
2018-11-10T19:37:11.778Z,8.63
2018-11-10T19:39:40.872Z,8.61
2018-11-10T19:42:10.072Z,8.60
2018-11-10T19:44:39.173Z,8.78
2018-11-10T19:47:08.267Z,8.75
2018-11-10T19:49:37.354Z,8.86
2018-11-10T19:52:06.641Z,8.79
2018-11-10T19:54:35.521Z,8.86
2018-11-10T19:57:04.604Z,8.94
2018-11-10T19:59:33.706Z,8.90
2018-11-10T20:02:02.796Z,9.04
2018-11-10T20:04:31.875Z,9.07
2018-11-10T20:07:00.976Z,9.08
2018-11-10T20:09:30.047Z,9.15
2018-11-10T20:11:59.197Z,9.23
2018-11-10T20:14:28.284Z,8.88
2018-11-10T20:16:57.353Z,8.83
2018-11-10T20:19:26.517Z,8.69
2018-11-10T20:21:55.633Z,8.76
2018-11-10T20:24:24.735Z,8.72
2018-11-10T20:26:53.833Z,8.84
2018-11-10T20:29:22.909Z,8.75
2018-11-10T20:31:51.992Z,8.83
2018-11-10T20:34:21.069Z,8.83
2018-11-10T20:36:50.180Z,8.77
2018-11-10T20:39:19.261Z,8.78
2018-11-10T20:41:48.409Z,8.74
2018-11-10T20:44:17.545Z,8.84
2018-11-10T20:46:46.709Z,8.99
2018-11-10T20:49:16.013Z,8.88
2018-11-10T20:51:45.116Z,8.84
2018-11-10T20:54:14.292Z,8.92
2018-11-10T20:56:43.381Z,8.96
2018-11-10T20:59:12.526Z,8.93
2018-11-10T21:01:41.662Z,9.06
2018-11-10T21:04:10.862Z,9.04
2018-11-10T21:06:40.108Z,8.94
2018-11-10T21:09:11.064Z,8.85
2018-11-10T21:11:40.240Z,8.83
2018-11-10T21:14:10.260Z,8.86
2018-11-10T21:16:39.622Z,8.68
2018-11-10T21:19:08.716Z,8.65
2018-11-10T21:21:37.918Z,8.56
2018-11-10T21:24:07.374Z,8.49
2018-11-10T21:26:36.480Z,8.74
2018-11-10T21:29:05.692Z,8.66
2018-11-10T21:31:34.822Z,8.68
2018-11-10T21:34:04.006Z,8.47
2018-11-10T21:36:33.140Z,8.33
2018-11-10T21:39:02.268Z,8.29
2018-11-10T21:41:31.368Z,8.37
2018-11-10T21:44:00.520Z,8.31
2018-11-10T21:46:29.613Z,8.21
2018-11-10T21:48:58.892Z,8.20
2018-11-10T21:51:28.025Z,8.33
2018-11-10T21:53:57.175Z,8.28
2018-11-10T21:56:26.301Z,8.41
2018-11-10T21:58:55.405Z,8.58
2018-11-10T22:01:24.513Z,8.52
2018-11-10T22:03:53.762Z,8.57
2018-11-10T22:06:22.883Z,8.43
2018-11-10T22:08:52.329Z,8.47
2018-11-10T22:11:24.636Z,8.47
2018-11-10T22:13:53.795Z,8.67
2018-11-10T22:16:23.269Z,8.65
2018-11-10T22:18:52.545Z,8.34
2018-11-10T22:21:22.449Z,8.44
2018-11-10T22:23:51.685Z,8.58
2018-11-10T22:26:21.577Z,8.68
2018-11-10T22:28:52.868Z,8.72
2018-11-10T22:31:22.550Z,8.73
2018-11-10T22:33:51.724Z,8.65
2018-11-10T22:36:21.169Z,8.61
2018-11-10T22:38:52.172Z,8.71
2018-11-10T22:41:21.387Z,8.65
2018-11-10T22:43:50.612Z,8.67
2018-11-10T22:46:19.852Z,8.54
2018-11-10T22:48:49.251Z,8.62
2018-11-10T22:51:18.652Z,8.40
2018-11-10T22:53:48.765Z,8.33
2018-11-10T22:56:17.881Z,8.32
2018-11-10T22:58:47.008Z,8.33
2018-11-10T23:01:19.894Z,8.25
2018-11-10T23:03:49.555Z,8.21
2018-11-10T23:06:19.300Z,8.20
2018-11-10T23:08:48.422Z,8.10
2018-11-10T23:11:17.540Z,8.32
2018-11-10T23:13:46.654Z,8.15
2018-11-10T23:16:15.754Z,8.13
2018-11-10T23:18:44.890Z,8.18
2018-11-10T23:21:16.000Z,8.19
2018-11-10T23:23:45.348Z,8.23
2018-11-10T23:26:14.444Z,8.14
2018-11-10T23:28:43.620Z,8.08
2018-11-10T23:31:13.012Z,8.20
2018-11-10T23:33:42.204Z,8.20
2018-11-10T23:36:11.742Z,8.30
2018-11-10T23:38:40.868Z,8.21
2018-11-10T23:41:10.140Z,8.14
